Nearby METAR Reports

 

KDLZ - Delaware, Ohio, USA
Distance from station: SW 3mi, 5km
Updated: Mon, 24-Feb-2020 2:37pm EST
Light drizzle, Overcast
Light drizzle, Overcast
 Wind from SSW
Wind: SSW 8 mph , 13 km/h
Temperature: 41°F , 5°C
Wind Chill: 36°F , 2°C
Dew Point: 37°F , 3°C
Humidity: 87%
Barometer: 29.90 inHg , 1012.5 hPa
Summary: Light Drizzle
Clouds: Overcast
Visibility: 10 miles , 16 km
Cloud details: Mostly cloudy 2100 ft
Mostly cloudy 2600 ft
Overcast 3200 ft
2020/02/24 19:37 KDLZ 241937Z AUTO 21007KT 10SM -DZ BKN021 BKN026 OVC032 05/03 A2990 RMK AO2
KOSU - Columbus/St Univ, Ohio, USA
Distance from station: S 16mi, 25km
Updated: Mon, 24-Feb-2020 2:53pm EST
Light rain, Overcast
Light rain, Overcast
 Wind from S
Wind: S 7 mph , 11 km/h
Temperature: 43°F , 6°C
Wind Chill: 39°F , 4°C
Dew Point: 37°F , 3°C
Humidity: 81%
Barometer: 29.88 inHg , 1011.9 hPa
Summary: Light rain
Clouds: Overcast
Visibility: 7 miles , 11 km
Cloud details: Partly cloudy 900 ft
Mostly cloudy 1400 ft
Overcast 1900 ft
2020/02/24 19:53 KOSU 241953Z 17006KT 7SM -RA SCT009 BKN014 OVC019 06/03 A2988 RMK AO2 SLP124 P0001 T00610033
 
KMRT - Marysville, Ohio, USA
Distance from station: WSW 16mi, 26km
Updated: Mon, 24-Feb-2020 2:55pm EST
Overcast
Overcast
 Wind from S
Wind: S 7 mph , 11 km/h
Temperature: 41°F , 5°C
Wind Chill: 36°F , 2°C
Dew Point: 39°F , 4°C
Humidity: 93%
Barometer: 29.87 inHg , 1011.5 hPa
Clouds: Overcast
Visibility: 5 miles , 8 km
Cloud details: Mostly cloudy 800 ft
Overcast 1600 ft
2020/02/24 19:55 KMRT 241955Z AUTO 19006KT 5SM BKN008 OVC016 05/04 A2987 RMK AO2 T00510040
KMNN - Marion, Ohio, USA
Distance from station: N 21mi, 34km
Updated: Mon, 24-Feb-2020 2:53pm EST
Overcast
Overcast
 Wind from SSE
Wind: SSE 6 mph , 9 km/h
Temperature: 43°F , 6°C
Wind Chill: 39°F , 4°C
Dew Point: 37°F , 3°C
Humidity: 81%
Barometer: 29.89 inHg , 1012.2 hPa
Clouds: Overcast
Visibility: 7 miles , 11 km
Cloud details: Overcast 1800 ft
2020/02/24 19:53 KMNN 241953Z AUTO 16005KT 7SM OVC018 06/03 A2989 RMK AO2 SLP128 T00610028
 
KCMH - Columbus, Ohio, USA
Distance from station: SSE 24mi, 38km
Updated: Mon, 24-Feb-2020 2:51pm EST
Overcast
Overcast
 Wind from varies
Wind: varies 5 mph , 7 km/h
Temperature: 45°F , 7°C
Wind Chill: 42°F , 6°C
Dew Point: 39°F , 4°C
Humidity: 81%
Barometer: 29.89 inHg , 1012.2 hPa
Clouds: Overcast
Visibility: 10 miles , 16 km
Cloud details: Few Clouds 1400 ft
Mostly cloudy 2200 ft
Overcast 9000 ft
2020/02/24 19:51 KCMH 241951Z VRB04KT 10SM FEW014 BKN022 OVC090 07/04 A2989 RMK AO2 RAE37 SLP127 P0001 T00670039
K4I3 - Mt Vernon/Knox, Ohio, USA
Distance from station: E 29mi, 46km
Updated: Mon, 24-Feb-2020 2:55pm EST
Mostly cloudy
Mostly cloudy
 Wind from S
Wind: S 9 mph , 15 km/h
Temperature: 46°F , 8°C
Wind Chill: 41°F , 5°C
Dew Point: 36°F , 2°C
Humidity: 66%
Barometer: 29.90 inHg , 1012.5 hPa
Clouds: Mostly cloudy
Visibility: 10 miles , 16 km
Cloud details: Partly cloudy 1400 ft
Mostly cloudy 2900 ft
Mostly cloudy 3500 ft
2020/02/24 19:55 K4I3 241955Z AUTO 18008KT 10SM SCT014 BKN029 BKN035 08/02 A2990 RMK AO2
 
KTZR - Columbus/Bolton, Ohio, USA
Distance from station: S 29mi, 46km
Updated: Mon, 24-Feb-2020 2:47pm EST
Overcast
Overcast
 Wind from SSW
Wind: SSW 8 mph , 13 km/h
Temperature: 43°F , 6°C
Wind Chill: 38°F , 3°C
Dew Point: 39°F , 4°C
Humidity: 87%
Barometer: 29.89 inHg , 1012.2 hPa
Clouds: Overcast
Visibility: 10 miles , 16 km
Cloud details: Mostly cloudy 1000 ft
Mostly cloudy 1700 ft
Overcast 7000 ft
2020/02/24 19:47 KTZR 241947Z 20007KT 10SM BKN010 BKN017 OVC070 06/04 A2989
KUYF - London, Ohio, USA
Distance from station: SW 33mi, 54km
Updated: Mon, 24-Feb-2020 2:55pm EST
Overcast
Overcast
 Wind from SSE
Wind: SSE 8 mph , 13 km/h
Temperature: 41°F , 5°C
Wind Chill: 36°F , 2°C
Dew Point: 39°F , 4°C
Humidity: 93%
Barometer: 29.86 inHg , 1011.2 hPa
Clouds: Overcast
Visibility: 10 miles , 16 km
Cloud details: Mostly cloudy 900 ft
Overcast 1300 ft
2020/02/24 19:55 KUYF 241955Z AUTO 16007KT 10SM BKN009 OVC013 05/04 A2986 RMK AO2
 
KLCK - Rickenbacker Ang, Ohio, USA
Distance from station: SSE 35mi, 57km
Updated: Mon, 24-Feb-2020 2:55pm EST
Overcast
Overcast
 Wind from S
Wind: S 10 mph , 17 km/h
Temperature: 45°F , 7°C
Wind Chill: 40°F , 4°C
Dew Point: 39°F , 4°C
Humidity: 81%
Barometer: 29.89 inHg , 1012.2 hPa
Clouds: Overcast
Visibility: 10 miles , 16 km
Cloud details: Mostly cloudy 1700 ft
Mostly cloudy 2200 ft
Overcast 3000 ft
2020/02/24 19:55 KLCK 241955Z AUTO 18009KT 10SM BKN017 BKN022 OVC030 07/04 A2989 RMK AO2 T00690035
KVTA - Newark, Ohio, USA
Distance from station: ESE 38mi, 61km
Updated: Mon, 24-Feb-2020 2:54pm EST
Overcast
Overcast
 Wind from SSW
Wind: SSW 7 mph , 11 km/h
Temperature: 46°F , 8°C
Wind Chill: 42°F , 6°C
Dew Point: 39°F , 4°C
Humidity: 76%
Barometer: 29.89 inHg , 1012.2 hPa
Clouds: Overcast
Visibility: 10 miles , 16 km
Cloud details: Overcast 4400 ft
2020/02/24 19:54 KVTA 241954Z AUTO 20006KT 10SM OVC044 08/04 A2989 RMK AO2 RAB18E47 SLP127 P0000 T00830039
 
KEDJ - Bellefontaine, Ohio, USA
Distance from station: W 39mi, 63km
Updated: Mon, 24-Feb-2020 2:55pm EST
Overcast
Overcast
 Wind from S
Wind: S 9 mph , 15 km/h
Temperature: 39°F , 4°C
Wind Chill: 33°F , 1°C
Barometer: 29.85 inHg , 1010.8 hPa
Clouds: Overcast
Visibility: 5 miles , 8 km
Cloud details: Partly cloudy 600 ft
Overcast 1300 ft
2020/02/24 19:55 KEDJ 241955Z AUTO 18008KT 5SM SCT006 OVC013 04/ A2985 RMK AO1 P0001
KLHQ - Lancaster, Ohio, USA
Distance from station: SSE 44mi, 71km
Updated: Mon, 24-Feb-2020 2:53pm EST
Overcast
Overcast
 Wind from S
Wind: S 3 mph , 6 km/h
Temperature: 46°F , 8°C
Dew Point: 37°F , 3°C
Humidity: 71%
Barometer: 29.90 inHg , 1012.5 hPa
Clouds: Overcast
Visibility: 10 miles , 16 km
Cloud details: Few Clouds 4700 ft
Partly cloudy 5500 ft
Overcast 9000 ft
2020/02/24 19:53 KLHQ 241953Z AUTO 17003KT 10SM FEW047 SCT055 OVC090 08/03 A2990 RMK AO2 SLP128 T00830028
 
KMFD - Mansfield, Ohio, USA
Distance from station: NE 46mi, 73km
Updated: Mon, 24-Feb-2020 2:52pm EST
Light rain, Overcast
Light rain, Overcast
 Wind from S
Wind: S 10 mph , 17 km/h
Temperature: 45°F , 7°C
Wind Chill: 40°F , 4°C
Dew Point: 39°F , 4°C
Humidity: 81%
Barometer: 29.89 inHg , 1012.2 hPa
Summary: Light rain
Clouds: Overcast
Visibility: 7 miles , 11 km
Cloud details: Mostly cloudy 1400 ft
Mostly cloudy 5000 ft
Overcast 7000 ft
2020/02/24 19:52 KMFD 241952Z 18009KT 7SM -RA BKN014 BKN050 OVC070 07/04 A2989 RMK AO2 RAB38 SLP125 P0000 T00670039
KSGH - Springfield Muni, Ohio, USA
Distance from station: SW 52mi, 84km
Updated: Mon, 24-Feb-2020 2:56pm EST
Overcast
Overcast
 Wind from S
Wind: S 7 mph , 11 km/h
Temperature: 41°F , 5°C
Wind Chill: 36°F , 2°C
Dew Point: 41°F , 5°C
Humidity: 100%
Barometer: 29.86 inHg , 1011.2 hPa
Clouds: Overcast
Visibility: 10 miles , 16 km
Cloud details: Mostly cloudy 1000 ft
Overcast 1600 ft
2020/02/24 19:56 KSGH 241956Z AUTO 17006KT 10SM BKN010 OVC016 05/05 A2986 RMK AO2 RAE30 CIG 007V013 SLP121 P0019 T00500050
 
KI23 - Washington Court, Ohio, USA
Distance from station: SSW 55mi, 88km
Updated: Mon, 24-Feb-2020 2:56pm EST
Overcast
Overcast
 Wind from SSE
Wind: SSE 12 mph , 19 km/h
Temperature: 41°F , 5°C
Wind Chill: 34°F , 1°C
Dew Point: 39°F , 4°C
Humidity: 93%
Barometer: 29.88 inHg , 1011.9 hPa
Clouds: Overcast
Visibility: 10 miles , 16 km
Cloud details: Partly cloudy 1000 ft
Mostly cloudy 1400 ft
Overcast 2900 ft
2020/02/24 19:56 KI23 241956Z AUTO 16010KT 10SM SCT010 BKN014 OVC029 05/04 A2988 RMK AO1
KAOH - Lima, Ohio, USA
Distance from station: WNW 56mi, 91km
Updated: Mon, 24-Feb-2020 2:53pm EST
Mist, Overcast
Mist, Overcast
 Wind from S
Wind: S 7 mph , 11 km/h
Temperature: 43°F , 6°C
Wind Chill: 39°F , 4°C
Dew Point: 39°F , 4°C
Humidity: 87%
Barometer: 29.84 inHg , 1010.5 hPa
Summary: Mist
Clouds: Overcast
Visibility: 5 miles , 8 km
Cloud details: Mostly cloudy 800 ft
Mostly cloudy 1100 ft
Overcast 1600 ft
2020/02/24 19:53 KAOH 241953Z AUTO 17006KT 5SM BR BKN008 BKN011 OVC016 06/04 A2984 RMK AO2 RAB11E53 CIG 006V010 SLP112 P0003 T00610044
 
KFDY - Findlay, Ohio, USA
Distance from station: NNW 58mi, 93km
Updated: Mon, 24-Feb-2020 2:53pm EST
Light rain, Overcast
Light rain, Overcast
 Wind from S
Wind: S 5 mph , 7 km/h
Temperature: 45°F , 7°C
Wind Chill: 42°F , 6°C
Dew Point: 39°F , 4°C
Humidity: 81%
Barometer: 29.86 inHg , 1011.2 hPa
Summary: Light rain
Clouds: Overcast
Visibility: 7 miles , 11 km
Cloud details: Partly cloudy 1800 ft
Overcast 2300 ft
2020/02/24 19:53 KFDY 241953Z AUTO 17004KT 7SM -RA SCT018 OVC023 07/04 A2986 RMK AO2 RAE16B36 SLP113 P0000 T00670044
KFFO - Wright Paterson, Ohio, USA
Distance from station: SW 61mi, 98km
Updated: Mon, 24-Feb-2020 2:41pm EST
Overcast
Overcast
 Wind from S
Wind: S 9 mph , 15 km/h
Temperature: 43°F , 6°C
Wind Chill: 38°F , 3°C
Dew Point: 39°F , 4°C
Humidity: 87%
Barometer: 29.87 inHg , 1011.5 hPa
Clouds: Overcast
Visibility: 10 miles , 16 km
Cloud details: Mostly cloudy 800 ft
Overcast 1500 ft
2020/02/24 19:41 KFFO 241941Z 19008KT 10SM BKN008 OVC015 06/04 A2987 RMK AO2A SLP124
 
KRZT - Chillicothe, Ohio, USA
Distance from station: S 61mi, 98km
Updated: Mon, 24-Feb-2020 2:55pm EST
Overcast
Overcast
 Wind from S
Wind: S 7 mph , 11 km/h
Temperature: 43°F , 6°C
Wind Chill: 39°F , 4°C
Dew Point: 37°F , 3°C
Humidity: 81%
Barometer: 29.90 inHg , 1012.5 hPa
Clouds: Overcast
Visibility: 10 miles , 16 km
Cloud details: Partly cloudy 1300 ft
Partly cloudy 1900 ft
Overcast 3100 ft
2020/02/24 19:55 KRZT 241955Z AUTO 19006KT 10SM SCT013 SCT019 OVC031 06/03 A2990 RMK AO2 PWINO
KI19 - Dayton-Jackson, Ohio, USA
Distance from station: SW 65mi, 105km
Updated: Mon, 24-Feb-2020 2:55pm EST
Overcast
Overcast
 Wind from SSE
Wind: SSE 5 mph , 7 km/h
Temperature: 43°F , 6°C
Wind Chill: 40°F , 4°C
Dew Point: 39°F , 4°C
Humidity: 87%
Barometer: 29.87 inHg , 1011.5 hPa
Clouds: Overcast
Visibility: 10 miles , 16 km
Cloud details: Partly cloudy 1000 ft
Overcast 1600 ft
2020/02/24 19:55 KI19 241955Z AUTO 15004KT 10SM SCT010 OVC016 06/04 A2987 RMK AO2 T00580043